Time;durP1;ratioP1;P1;durP2;ratioP2;P2;SDS_P1;SDS_P2;PMS_P1;PMS_P2;Temp;Humidity;BMP_temperature;BMP_pressure;BME280_temperature;BME280_humidity;BME280_pressure;Samples;Min_cycle;Max_cycle;Signal;HPM_P1;HPM_P2
2023/11/26 00:00:53;;;;;;;4.13;2.43;;;2.10;99.90;;;3.50;73.67;97296.50;5012973;28;20046;-59
2023/11/26 00:03:21;;;;;;;14.67;5.87;;;2.20;99.90;;;3.48;74.14;97305.50;5014528;28;20050;-59
2023/11/26 00:05:49;;;;;;;11.00;3.80;;;2.10;99.90;;;3.56;73.29;97308.34;5013453;28;20041;-59
2023/11/26 00:08:17;;;;;;;11.83;4.20;;;2.10;99.90;;;3.48;73.60;97303.69;5014375;28;20054;-58
2023/11/26 00:10:45;;;;;;;10.90;4.17;;;2.10;99.90;;;3.66;73.10;97309.25;4996587;28;20046;-59
2023/11/26 00:13:13;;;;;;;8.00;3.70;;;2.10;99.90;;;3.57;72.80;97303.91;5013040;28;20065;-59
2023/11/26 00:15:40;;;;;;;6.10;3.27;;;2.10;99.90;;;3.61;73.32;97303.53;5013550;28;20427;-58
2023/11/26 00:18:08;;;;;;;6.40;2.87;;;2.20;99.90;;;3.69;72.74;97305.53;5013876;28;20072;-58
2023/11/26 00:20:38;;;;;;;5.87;3.23;;;2.20;99.90;;;3.77;72.41;97300.47;5013589;28;20046;-59
2023/11/26 00:23:06;;;;;;;6.80;2.93;;;2.20;99.90;;;3.74;72.85;97309.47;5013487;28;20050;-58
2023/11/26 00:25:34;;;;;;;9.67;4.97;;;2.20;99.90;;;3.88;72.89;97312.75;5013397;28;20041;-58
2023/11/26 00:28:02;;;;;;;5.77;2.87;;;2.30;99.90;;;3.83;72.57;97310.47;5013711;28;20057;-59
2023/11/26 00:30:31;;;;;;;9.80;4.40;;;2.30;99.90;;;3.73;72.64;97318.31;5012410;28;20057;-58
2023/11/26 00:32:59;;;;;;;8.63;3.90;;;2.20;99.90;;;3.77;72.10;97318.06;5013609;28;20042;-57
2023/11/26 00:35:27;;;;;;;10.50;3.30;;;2.30;99.90;;;3.80;72.23;97315.16;5012917;28;20047;-58
2023/11/26 00:37:54;;;;;;;9.57;3.27;;;2.30;99.90;;;3.80;71.88;97323.06;5012328;28;20049;-58
2023/11/26 00:40:24;;;;;;;11.53;4.00;;;2.30;99.90;;;3.90;71.60;97322.19;5012094;28;20042;-58
2023/11/26 00:42:52;;;;;;;7.10;3.90;;;2.30;99.90;;;3.86;71.92;97327.84;5013220;28;20038;-58
2023/11/26 00:45:19;;;;;;;7.43;3.80;;;2.30;99.90;;;3.90;71.75;97326.63;5012105;28;20423;-59
2023/11/26 00:47:47;;;;;;;6.70;3.73;;;2.30;99.90;;;3.79;71.60;97332.78;5013088;28;20045;-58
2023/11/26 00:50:17;;;;;;;6.20;3.80;;;2.20;99.90;;;3.60;72.09;97324.72;5012072;28;20050;-57
2023/11/26 00:52:45;;;;;;;7.77;4.23;;;2.10;99.90;;;3.67;71.17;97333.78;5011601;28;20054;-58
2023/11/26 00:55:13;;;;;;;5.67;2.83;;;2.10;99.90;;;3.75;71.25;97334.81;5012716;28;20057;-59
2023/11/26 00:57:41;;;;;;;5.20;3.30;;;2.10;99.90;;;3.76;71.65;97335.66;5013076;28;20426;-57
2023/11/26 01:00:12;;;;;;;3.67;2.70;;;2.10;99.90;;;3.74;70.86;97348.09;4996008;28;20041;-58
2023/11/26 01:02:41;;;;;;;4.00;3.07;;;2.10;99.90;;;3.75;71.35;97353.25;5011927;28;20057;-58
2023/11/26 01:05:09;;;;;;;4.17;2.47;;;2.10;99.90;;;3.75;71.46;97363.78;5011778;28;20081;-57
2023/11/26 01:07:37;;;;;;;5.07;2.73;;;2.10;99.90;;;3.75;71.38;97361.16;5012769;28;20426;-57
2023/11/26 01:10:05;;;;;;;8.00;2.57;;;2.00;99.90;;;3.74;70.80;97364.75;4994791;28;20049;-57
2023/11/26 01:12:33;;;;;;;5.20;2.57;;;2.00;99.90;;;3.68;70.72;97364.41;5012084;28;20335;-56
2023/11/26 01:15:01;;;;;;;7.53;2.60;;;2.00;99.90;;;3.71;71.10;97369.44;5012472;28;20045;-57
2023/11/26 01:17:29;;;;;;;5.87;2.37;;;2.00;99.90;;;3.76;70.54;97375.16;5012845;28;20041;-57
2023/11/26 01:19:57;;;;;;;4.03;2.40;;;2.00;99.90;;;3.85;70.66;97376.22;5011363;28;20057;-57
2023/11/26 01:22:24;;;;;;;4.93;2.00;;;2.00;99.90;;;3.81;70.91;97377.41;5012387;28;20061;-57
2023/11/26 01:24:52;;;;;;;6.60;2.80;;;2.00;99.90;;;3.70;70.78;97379.13;5011119;28;20526;-57
2023/11/26 01:27:20;;;;;;;5.37;2.40;;;2.00;99.90;;;3.83;70.74;97372.88;5012840;28;20205;-57
2023/11/26 01:29:48;;;;;;;10.50;4.03;;;2.00;99.90;;;3.90;70.77;97379.31;5011535;28;20050;-57
2023/11/26 01:32:16;;;;;;;7.13;2.33;;;2.10;99.90;;;3.87;70.13;97388.28;5012947;28;20053;-55
2023/11/26 01:34:44;;;;;;;5.07;1.80;;;2.00;99.90;;;3.86;70.11;97384.00;4994960;28;20054;-57
2023/11/26 01:37:11;;;;;;;4.43;2.00;;;2.00;99.90;;;3.85;69.95;97382.28;5012264;28;20052;-56
2023/11/26 01:39:40;;;;;;;6.30;1.90;;;1.90;99.90;;;3.84;69.85;97385.91;5010862;28;20057;-57
2023/11/26 01:42:09;;;;;;;3.83;1.70;;;1.90;99.90;;;3.84;69.72;97391.19;5012458;28;20042;-57
2023/11/26 01:44:37;;;;;;;4.73;1.90;;;1.80;99.90;;;3.73;69.25;97397.31;5010583;28;20045;-57
2023/11/26 01:47:06;;;;;;;4.13;1.90;;;1.70;99.90;;;3.79;70.14;97400.41;4994240;28;20050;-57
2023/11/26 01:49:36;;;;;;;5.30;1.83;;;1.80;99.90;;;3.80;69.42;97402.94;4994446;28;20057;-57
2023/11/26 01:52:10;;;;;;;2.53;1.57;;;1.80;99.90;;;3.81;69.13;97401.13;5012500;28;20061;-56
2023/11/26 01:54:41;;;;;;;;;;;1.80;99.90;;;3.81;69.50;97411.66;5012185;28;20062;-57
2023/11/26 01:57:11;;;;;;;4.97;2.30;;;1.80;99.90;;;3.82;69.50;97400.13;5012302;28;20222;-56
2023/11/26 01:59:39;;;;;;;3.03;1.90;;;1.80;99.90;;;3.82;68.79;97401.00;4994610;28;20045;-57
2023/11/26 02:02:07;;;;;;;2.60;1.87;;;1.80;99.90;;;3.83;68.63;97405.28;5010603;28;20054;-57
2023/11/26 02:04:37;;;;;;;3.73;1.50;;;1.80;99.90;;;3.82;68.37;97397.50;5011896;28;20050;-57
2023/11/26 02:07:05;;;;;;;3.27;1.80;;;1.70;99.90;;;3.79;68.49;97398.59;5010495;28;20053;-58
2023/11/26 02:09:33;;;;;;;3.90;2.33;;;1.70;99.90;;;3.77;68.95;97408.44;5007675;28;20054;-57
2023/11/26 02:12:00;;;;;;;3.30;1.63;;;1.70;99.90;;;3.75;68.66;97405.09;4993844;28;20201;-56
2023/11/26 02:14:28;;;;;;;2.90;1.47;;;1.60;99.90;;;3.75;68.97;97403.28;5011046;28;20050;-57
2023/11/26 02:16:56;;;;;;;3.07;1.83;;;1.70;99.90;;;3.73;68.67;97410.47;5010418;28;20057;-58
2023/11/26 02:19:37;;;;;;;5.13;2.20;;;1.60;99.90;;;3.73;68.60;97407.84;5010174;28;20057;-57
2023/11/26 02:22:08;;;;;;;3.47;1.80;;;1.70;99.90;;;3.73;68.33;97409.63;5005036;28;20050;-57
2023/11/26 02:24:44;;;;;;;4.87;1.70;;;1.70;99.90;;;3.73;68.72;97413.09;5010009;28;20046;-57
2023/11/26 02:27:11;;;;;;;5.63;2.13;;;1.70;99.90;;;3.71;68.39;97408.94;5010503;28;20056;-56
2023/11/26 02:29:41;;;;;;;7.43;1.90;;;1.70;99.90;;;3.72;68.63;97414.06;5009755;28;20061;-56
2023/11/26 02:32:09;;;;;;;3.43;2.07;;;1.70;99.90;;;3.76;68.60;97425.16;5010503;28;20052;-57
2023/11/26 02:34:37;;;;;;;4.10;1.73;;;1.70;99.90;;;3.78;68.35;97412.75;5011042;28;20072;-57
2023/11/26 02:37:05;;;;;;;3.63;2.10;;;1.70;99.90;;;3.80;68.33;97416.09;4993919;28;20058;-56
2023/11/26 02:39:33;;;;;;;3.60;1.67;;;1.80;99.90;;;3.81;68.36;97422.19;4993509;28;20053;-56
2023/11/26 02:42:02;;;;;;;3.70;2.10;;;1.80;99.90;;;3.84;68.32;97425.41;5010217;28;20057;-56
2023/11/26 02:44:29;;;;;;;3.63;1.80;;;1.80;99.90;;;3.85;68.63;97427.06;5009472;28;20117;-56
2023/11/26 02:46:58;;;;;;;3.90;2.07;;;1.80;99.90;;;3.85;68.64;97427.06;5003347;28;20048;-55
2023/11/26 02:49:25;;;;;;;6.37;1.97;;;1.80;99.90;;;3.85;68.89;97428.88;5009713;28;20049;-57
2023/11/26 02:51:54;;;;;;;4.87;2.20;;;1.80;99.90;;;3.90;68.79;97422.28;5011257;28;20041;-57
2023/11/26 02:54:22;;;;;;;4.07;1.80;;;1.90;99.90;;;3.91;68.26;97418.66;5010344;28;20053;-56
2023/11/26 02:56:51;;;;;;;4.23;1.83;;;2.00;99.90;;;3.89;68.39;97430.28;5010987;28;20038;-57
2023/11/26 02:59:20;;;;;;;4.43;1.93;;;1.90;99.90;;;3.90;68.39;97434.63;5009845;28;20533;-55
2023/11/26 03:01:48;;;;;;;9.70;2.40;;;1.90;99.90;;;3.89;68.27;97433.75;5009863;28;20050;-56
2023/11/26 03:04:19;;;;;;;4.10;2.10;;;1.90;99.90;;;3.92;68.33;97435.31;5009434;28;20050;-54
2023/11/26 03:06:48;;;;;;;2.87;1.60;;;2.00;99.90;;;3.92;68.26;97433.53;4994028;28;20046;-57
2023/11/26 03:09:29;;;;;;;4.10;1.80;;;2.00;99.90;;;3.95;68.32;97440.31;5009801;28;20426;-56
2023/11/26 03:14:51;;;;;;;5.27;2.53;;;2.00;99.90;;;3.97;68.39;97438.41;4997858;28;20459;-56
2023/11/26 03:17:20;;;;;;;6.17;1.80;;;2.00;99.90;;;4.00;68.25;97443.44;5009917;28;20073;-56
2023/11/26 03:19:47;;;;;;;4.53;1.43;;;2.10;99.90;;;3.95;68.73;97448.22;5009599;28;20057;-56
2023/11/26 03:22:15;;;;;;;3.60;1.93;;;2.00;99.90;;;3.96;68.39;97441.19;5010610;28;20046;-57
2023/11/26 03:24:43;;;;;;;3.70;2.40;;;2.00;99.90;;;3.94;68.24;97443.94;5009317;28;20042;-56
2023/11/26 03:27:13;;;;;;;3.03;1.70;;;2.00;99.90;;;4.00;68.70;97439.97;4993474;28;20054;-57
2023/11/26 03:29:41;;;;;;;3.97;1.70;;;2.10;99.90;;;4.00;68.60;97442.59;5009537;28;20073;-57
2023/11/26 03:32:09;;;;;;;5.33;2.97;;;2.10;99.90;;;4.03;68.78;97435.28;5009655;28;20053;-56
2023/11/26 03:34:37;;;;;;;3.77;1.97;;;2.20;99.90;;;4.06;68.60;97439.47;5012096;28;20050;-56
2023/11/26 03:37:05;;;;;;;4.07;1.93;;;2.20;99.90;;;4.07;68.88;97438.50;5013254;28;20049;-57
2023/11/26 03:39:38;;;;;;;3.47;1.63;;;2.20;99.90;;;4.10;68.38;97440.88;5013338;28;20042;-55
2023/11/26 03:42:06;;;;;;;4.30;1.67;;;2.20;99.90;;;4.06;68.70;97427.13;5007303;28;20046;-56
2023/11/26 03:44:49;;;;;;;3.67;1.93;;;2.20;99.90;;;4.11;68.29;97438.13;5013519;28;20049;-57
2023/11/26 03:47:18;;;;;;;3.80;1.63;;;2.20;99.90;;;4.15;68.68;97438.72;5013362;28;20045;-55
2023/11/26 03:49:46;;;;;;;3.93;1.70;;;2.20;99.90;;;4.12;68.36;97438.97;5013147;28;20045;-56
2023/11/26 03:52:13;;;;;;;3.97;1.40;;;2.20;99.90;;;4.16;67.91;97440.38;5013481;28;20510;-56
2023/11/26 03:54:41;;;;;;;4.57;1.93;;;2.20;99.90;;;4.16;68.18;97443.00;5013895;28;20492;-57
2023/11/26 03:57:09;;;;;;;2.87;1.83;;;2.20;99.90;;;4.17;68.59;97441.19;5013392;28;20054;-56
2023/11/26 03:59:44;;;;;;;3.27;2.23;;;2.20;99.90;;;4.20;68.41;97435.69;5012603;28;20050;-56
2023/11/26 04:02:12;;;;;;;4.07;1.73;;;2.30;99.90;;;4.25;68.27;97438.78;5007304;28;20046;-55
2023/11/26 04:04:40;;;;;;;3.57;1.60;;;2.30;99.90;;;4.26;67.79;97443.09;5013755;28;20049;-55
2023/11/26 04:07:08;;;;;;;4.73;2.13;;;2.30;99.90;;;4.25;67.51;97449.34;5014014;28;20058;-58
2023/11/26 04:09:35;;;;;;;3.10;1.60;;;2.30;99.90;;;4.21;68.21;97450.56;5013653;28;20054;-57
2023/11/26 04:12:04;;;;;;;7.03;1.77;;;2.30;99.90;;;4.18;67.96;97440.25;5012639;28;20050;-56
2023/11/26 04:14:34;;;;;;;5.03;1.43;;;2.30;99.90;;;4.12;68.28;97445.06;5013136;28;20101;-56
2023/11/26 04:17:02;;;;;;;3.97;1.50;;;2.30;99.90;;;4.09;68.12;97445.31;5013638;28;20041;-56
2023/11/26 04:19:30;;;;;;;4.23;1.83;;;2.20;99.90;;;4.11;68.24;97450.44;5013705;28;20047;-56
2023/11/26 04:21:58;;;;;;;3.63;1.40;;;2.20;99.90;;;4.03;67.87;97452.88;5012218;28;20275;-55
2023/11/26 04:24:26;;;;;;;1.73;1.20;;;2.20;99.80;;;3.92;68.22;97454.59;5013395;28;20049;-56
2023/11/26 04:26:55;;;;;;;4.30;1.90;;;2.10;99.90;;;3.86;67.76;97457.72;5013545;28;20412;-56
2023/11/26 04:29:22;;;;;;;5.20;2.67;;;2.00;99.90;;;3.74;67.89;97462.19;5013545;28;20042;-56
2023/11/26 04:31:50;;;;;;;2.43;1.83;;;1.90;99.90;;;3.77;68.09;97457.63;5013522;28;20495;-56
2023/11/26 04:34:18;;;;;;;3.73;1.67;;;1.90;99.90;;;3.74;68.00;97462.19;5012931;28;20076;-56
2023/11/26 04:36:45;;;;;;;2.97;1.53;;;1.90;99.90;;;3.55;68.82;97480.41;5013751;28;20057;-56
2023/11/26 04:39:13;;;;;;;3.63;1.50;;;1.80;99.90;;;3.60;68.09;97478.22;5012266;28;20046;-55
2023/11/26 04:41:41;;;;;;;2.23;1.30;;;1.90;99.90;;;3.67;68.37;97475.97;5013399;28;20034;-56
2023/11/26 04:44:08;;;;;;;4.97;1.20;;;1.90;99.90;;;3.70;68.27;97480.97;5003423;28;20042;-55
2023/11/26 04:46:36;;;;;;;1.60;1.10;;;1.80;99.90;;;3.74;67.82;97490.28;5012654;28;20042;-55
2023/11/26 04:49:04;;;;;;;1.60;1.20;;;1.90;99.90;;;3.71;67.88;97487.91;5013411;28;20041;-55
2023/11/26 04:51:35;;;;;;;1.30;1.03;;;1.90;99.90;;;3.75;67.75;97489.34;5013354;28;20049;-55
2023/11/26 04:54:05;;;;;;;2.03;0.85;;;1.80;99.90;;;3.77;68.05;97495.31;5011211;28;20045;-56
2023/11/26 04:56:36;;;;;;;1.70;1.00;;;1.90;99.90;;;3.83;67.76;97494.84;5013047;28;20125;-56
2023/11/26 04:59:04;;;;;;;2.20;1.40;;;1.90;99.90;;;3.89;68.03;97488.25;5013040;28;20054;-56
2023/11/26 05:01:34;;;;;;;4.70;1.10;;;2.00;99.50;;;3.92;67.46;97488.84;5012956;28;20038;-55
2023/11/26 05:04:03;;;;;;;2.23;1.00;;;2.00;99.20;;;3.80;67.25;97495.09;5011499;28;20038;-56
2023/11/26 05:06:30;;;;;;;1.30;1.10;;;2.00;98.50;;;3.79;67.57;97509.19;5013006;28;20049;-56
2023/11/26 05:08:58;;;;;;;1.93;1.80;;;1.90;97.90;;;3.85;67.11;97510.50;5009560;28;20518;-55
2023/11/26 05:11:27;;;;;;;2.93;1.70;;;1.90;99.50;;;3.82;67.28;97516.88;5011670;28;20052;-55
2023/11/26 05:13:55;;;;;;;2.67;1.07;;;1.90;97.40;;;3.84;67.41;97514.94;5012149;28;20050;-55
2023/11/26 05:16:23;;;;;;;2.57;1.03;;;1.90;99.10;;;3.89;67.56;97523.31;5012489;28;20042;-56
2023/11/26 05:18:51;;;;;;;2.67;1.00;;;2.00;99.00;;;3.92;67.15;97515.16;5012527;28;20042;-54
2023/11/26 05:21:18;;;;;;;2.50;1.10;;;2.00;98.60;;;3.92;67.31;97517.81;5012408;28;20053;-55
2023/11/26 05:23:46;;;;;;;4.33;2.37;;;2.00;97.80;;;3.92;67.13;97515.16;5011990;28;20045;-56
2023/11/26 05:26:14;;;;;;;4.37;1.10;;;1.90;97.40;;;3.91;67.09;97512.66;5012525;28;20535;-54
2023/11/26 05:28:42;;;;;;;2.90;1.53;;;1.90;97.60;;;3.87;66.24;97514.69;5012287;28;20038;-54
2023/11/26 05:31:11;;;;;;;2.27;1.03;;;1.80;97.50;;;3.80;66.85;97520.56;5012166;28;20048;-56
2023/11/26 05:33:39;;;;;;;3.13;1.20;;;1.70;97.60;;;3.84;66.89;97525.50;5012193;28;20041;-55
2023/11/26 05:36:07;;;;;;;1.40;1.10;;;1.80;98.10;;;3.81;66.87;97524.88;5012333;28;20050;-55
2023/11/26 05:38:35;;;;;;;1.80;0.97;;;1.80;96.10;;;3.80;66.60;97521.44;5012236;28;20483;-54
2023/11/26 05:41:03;;;;;;;1.80;1.07;;;1.80;97.60;;;3.82;66.65;97521.28;5010677;28;20045;-54
2023/11/26 05:43:31;;;;;;;2.03;0.93;;;1.80;97.60;;;3.83;66.54;97522.97;5011977;28;20041;-54
2023/11/26 05:45:59;;;;;;;1.50;0.73;;;1.80;97.10;;;3.85;66.22;97528.94;5012045;28;20046;-54
2023/11/26 05:48:26;;;;;;;0.87;0.87;;;1.90;97.90;;;3.87;66.61;97529.66;5012270;28;20129;-55
2023/11/26 05:50:54;;;;;;;1.10;0.77;;;1.90;97.40;;;3.90;66.79;97530.25;5012036;28;20427;-52
2023/11/26 05:53:24;;;;;;;1.03;0.83;;;2.00;97.80;;;3.95;66.60;97532.53;5012089;28;20042;-55
2023/11/26 05:55:52;;;;;;;5.00;1.60;;;2.00;97.70;;;4.00;66.91;97535.63;5011180;28;20045;-56
2023/11/26 05:58:20;;;;;;;2.67;1.13;;;2.10;97.90;;;4.04;66.94;97539.69;5012062;28;20207;-55
2023/11/26 06:00:48;;;;;;;3.53;1.10;;;2.10;97.80;;;4.04;66.62;97538.88;5011822;28;20038;-53
2023/11/26 06:03:16;;;;;;;1.33;0.80;;;2.10;97.20;;;4.04;66.53;97542.31;5011803;28;20049;-55
2023/11/26 06:05:43;;;;;;;2.60;1.17;;;2.10;97.80;;;4.10;66.46;97533.09;5011462;28;20038;-53
2023/11/26 06:08:11;;;;;;;1.90;1.40;;;2.20;98.20;;;4.14;66.48;97542.44;5011724;28;20042;-52
2023/11/26 06:10:39;;;;;;;3.13;1.40;;;2.20;97.60;;;4.16;66.84;97539.69;5010613;28;20042;-52
2023/11/26 06:13:06;;;;;;;2.47;1.33;;;2.20;97.80;;;4.19;66.57;97553.44;5011524;28;20046;-55
2023/11/26 06:15:34;;;;;;;2.67;1.20;;;2.30;98.40;;;4.22;66.97;97554.97;5011047;28;20392;-55
2023/11/26 06:18:02;;;;;;;3.37;1.50;;;2.30;97.20;;;4.11;66.36;97559.34;5010468;28;20069;-55
2023/11/26 06:20:29;;;;;;;2.40;1.63;;;2.30;97.80;;;4.19;66.36;97556.09;5010543;28;20431;-54
2023/11/26 06:22:57;;;;;;;3.23;2.67;;;2.30;99.00;;;4.21;66.73;97558.59;5011423;28;20423;-55
2023/11/26 06:25:25;;;;;;;1.73;1.40;;;2.30;98.20;;;4.22;66.49;97549.72;5011106;28;20518;-54
2023/11/26 06:27:52;;;;;;;4.07;1.70;;;2.30;98.20;;;4.26;66.54;97551.97;5011887;28;20402;-54
2023/11/26 06:30:20;;;;;;;3.07;1.83;;;2.30;98.80;;;4.18;67.08;97559.66;5011402;28;20487;-54
2023/11/26 06:32:47;;;;;;;4.67;2.27;;;2.30;98.50;;;4.25;66.77;97552.13;5011471;28;20044;-53
2023/11/26 06:35:16;;;;;;;3.13;1.83;;;2.40;99.50;;;4.23;66.61;97548.78;5003347;28;20500;-56
2023/11/26 06:37:43;;;;;;;3.37;1.73;;;2.40;99.20;;;4.23;67.00;97551.41;5011283;28;20037;-53
2023/11/26 06:40:12;;;;;;;5.17;2.00;;;2.40;99.70;;;4.20;66.73;97554.28;5011185;28;20042;-55
2023/11/26 06:42:41;;;;;;;4.17;1.93;;;2.40;99.60;;;4.21;67.17;97554.16;5011160;28;20053;-56
2023/11/26 06:45:10;;;;;;;3.47;3.03;;;2.40;99.90;;;4.18;67.53;97561.47;5010516;28;20102;-56
2023/11/26 06:47:38;;;;;;;4.20;2.50;;;2.40;99.70;;;4.21;67.72;97567.34;5011294;28;20416;-56
2023/11/26 06:50:08;;;;;;;7.83;3.10;;;2.40;99.90;;;4.21;67.74;97574.41;5010943;28;20042;-55
2023/11/26 06:52:35;;;;;;;6.20;2.80;;;2.40;99.90;;;4.25;67.42;97566.13;5011231;28;20430;-54
2023/11/26 06:55:05;;;;;;;4.60;2.80;;;2.50;99.90;;;4.29;67.57;97570.19;5010674;28;20470;-55
2023/11/26 06:57:33;;;;;;;6.37;3.83;;;2.60;99.90;;;4.20;67.77;97578.81;5010914;28;20057;-55
2023/11/26 07:00:00;;;;;;;3.67;2.60;;;2.60;99.90;;;4.19;68.43;97581.56;5010940;28;20049;-54
2023/11/26 07:02:28;;;;;;;7.03;3.20;;;2.60;99.90;;;4.28;67.98;97588.75;5009822;28;20400;-54
2023/11/26 07:04:56;;;;;;;5.43;3.10;;;2.70;99.90;;;4.36;68.02;97588.13;5010696;28;20062;-55
2023/11/26 07:07:24;;;;;;;5.67;2.93;;;2.80;99.90;;;4.43;68.28;97592.78;5010719;28;20042;-55
2023/11/26 07:09:52;;;;;;;5.53;3.40;;;2.80;99.90;;;4.44;68.04;97589.19;5010486;28;20038;-54
2023/11/26 07:12:20;;;;;;;6.13;3.73;;;2.80;99.80;;;4.42;67.51;97593.75;5011006;28;20495;-55
2023/11/26 07:14:47;;;;;;;6.30;3.43;;;2.80;99.40;;;4.53;67.82;97595.50;5009937;28;20041;-55
2023/11/26 07:17:15;;;;;;;6.67;3.67;;;2.80;99.90;;;4.53;67.77;97595.50;5010967;28;20041;-55
2023/11/26 07:19:44;;;;;;;6.17;3.10;;;2.80;99.20;;;4.50;68.07;97603.69;5010885;28;20057;-54
2023/11/26 07:22:13;;;;;;;4.57;3.50;;;2.80;99.90;;;4.53;67.87;97598.97;5009346;28;20041;-55
2023/11/26 07:24:41;;;;;;;8.57;3.97;;;2.80;99.60;;;4.61;68.20;97600.16;5010341;28;20030;-54
2023/11/26 07:27:09;;;;;;;6.23;3.63;;;2.90;99.90;;;4.59;67.97;97605.56;5009603;28;20053;-52
2023/11/26 07:29:37;;;;;;;5.30;3.67;;;2.80;99.30;;;4.43;67.52;97615.69;5010581;28;20094;-54
2023/11/26 07:32:05;;;;;;;5.57;3.77;;;2.80;99.90;;;4.53;68.04;97611.34;5010604;28;20046;-56
2023/11/26 07:34:33;;;;;;;6.13;4.00;;;2.80;99.90;;;4.65;67.70;97609.50;5010240;28;20050;-59
2023/11/26 07:37:01;;;;;;;10.40;5.03;;;2.90;99.90;;;4.73;67.82;97617.66;5010683;28;20049;-59
2023/11/26 07:39:31;;;;;;;9.87;4.00;;;3.00;99.90;;;4.77;67.75;97618.22;5009483;28;20105;-59
2023/11/26 07:41:59;;;;;;;6.47;3.53;;;3.00;99.90;;;4.84;67.40;97619.38;5010975;28;20068;-59
2023/11/26 07:44:26;;;;;;;7.17;3.23;;;3.10;99.90;;;4.84;67.62;97624.66;5010187;28;20042;-59
2023/11/26 07:46:54;;;;;;;8.93;4.13;;;3.00;99.40;;;4.66;68.31;97622.56;5010374;28;20057;-59
2023/11/26 07:49:22;;;;;;;10.27;4.53;;;3.00;99.90;;;4.71;68.31;97628.31;5010611;28;20046;-59
2023/11/26 07:51:50;;;;;;;7.93;4.17;;;3.00;99.60;;;4.78;67.65;97626.00;5010700;28;20046;-59
2023/11/26 07:54:19;;;;;;;5.60;4.10;;;3.00;99.90;;;4.71;68.00;97630.94;5008500;28;20038;-59
2023/11/26 07:56:53;;;;;;;7.00;4.07;;;3.00;99.60;;;4.68;68.17;97628.56;5009366;28;20042;-59
2023/11/26 07:59:21;;;;;;;5.13;4.30;;;3.00;99.90;;;4.80;68.23;97623.25;5009499;28;20038;-59
2023/11/26 08:01:49;;;;;;;7.77;4.50;;;3.10;99.90;;;4.83;68.10;97633.56;5009712;28;20475;-59
2023/11/26 08:04:18;;;;;;;7.90;4.60;;;3.10;99.90;;;4.87;68.47;97638.44;5001202;28;20038;-59
2023/11/26 08:06:49;;;;;;;7.43;4.20;;;3.20;99.80;;;4.94;68.03;97636.13;5008335;28;20038;-59
2023/11/26 08:09:17;;;;;;;11.00;4.87;;;3.20;99.90;;;4.95;67.82;97642.25;5007222;28;20046;-59
2023/11/26 08:11:46;;;;;;;7.40;4.77;;;3.30;99.70;;;4.98;68.03;97642.00;5007367;28;20049;-59
2023/11/26 08:14:15;;;;;;;5.70;4.23;;;3.30;99.90;;;5.03;67.86;97645.09;5009167;28;20049;-59
2023/11/26 08:16:43;;;;;;;9.70;5.20;;;3.30;99.90;;;5.10;67.70;97646.28;5009515;28;20042;-59
2023/11/26 08:19:17;;;;;;;8.33;4.63;;;3.40;99.70;;;5.11;67.97;97642.66;5009959;28;20057;-59
2023/11/26 08:21:45;;;;;;;7.10;4.33;;;3.40;99.60;;;5.15;67.76;97651.16;5012452;28;20046;-59
2023/11/26 08:24:15;;;;;;;6.93;5.33;;;3.50;99.30;;;5.19;67.98;97642.03;5004107;28;20057;-59
2023/11/26 08:26:46;;;;;;;9.13;4.53;;;3.50;99.10;;;5.16;67.45;97629.06;5011460;28;20413;-59
2023/11/26 08:29:18;;;;;;;11.23;5.13;;;3.50;98.60;;;5.21;68.02;97632.19;5012058;28;20065;-59
2023/11/26 08:31:47;;;;;;;8.13;4.93;;;3.50;99.30;;;5.24;67.46;97638.03;5011886;28;20640;-59
2023/11/26 08:34:16;;;;;;;6.87;5.10;;;3.50;98.70;;;5.24;67.07;97630.13;5011720;28;20053;-59
2023/11/26 08:36:45;;;;;;;8.57;5.03;;;3.60;98.50;;;5.23;67.25;97630.25;5012640;28;20049;-59
2023/11/26 08:39:19;;;;;;;8.50;4.70;;;3.50;98.40;;;5.23;67.39;97628.44;5011155;28;20046;-59
2023/11/26 08:41:47;;;;;;;8.40;4.83;;;3.60;98.60;;;5.29;67.95;97632.38;5012584;28;20046;-59
2023/11/26 08:44:15;;;;;;;9.77;4.77;;;3.60;99.30;;;5.30;67.50;97634.88;5010548;28;20483;-59
2023/11/26 08:46:43;;;;;;;8.13;5.33;;;3.60;98.80;;;5.25;67.19;97638.88;5011075;28;20050;-59
2023/11/26 08:49:16;;;;;;;8.63;4.87;;;3.60;97.80;;;5.29;67.74;97640.28;5010929;28;20046;-58
2023/11/26 08:51:44;;;;;;;10.20;4.63;;;3.60;98.50;;;5.32;68.03;97638.22;5012498;28;20042;-58
2023/11/26 08:54:12;;;;;;;7.97;4.40;;;3.60;98.70;;;5.34;67.66;97635.47;5011663;28;20305;-60
2023/11/26 08:56:40;;;;;;;17.80;8.03;;;3.70;97.10;;;5.26;67.66;97644.03;5010943;28;20064;-60
2023/11/26 08:59:07;;;;;;;10.97;6.47;;;3.60;97.30;;;5.27;67.13;97645.72;5010796;28;20447;-58
2023/11/26 09:01:37;;;;;;;8.17;4.83;;;3.70;98.30;;;5.35;67.89;97649.50;5011677;28;20076;-59
2023/11/26 09:04:06;;;;;;;9.27;5.50;;;3.70;98.00;;;5.40;67.59;97639.41;5010541;28;20493;-59
2023/11/26 09:06:34;;;;;;;13.87;6.63;;;3.80;97.90;;;5.41;67.53;97643.69;5012010;28;20048;-59
2023/11/26 09:09:02;;;;;;;14.23;8.40;;;3.80;97.50;;;5.48;67.58;97647.50;5011917;28;20050;-59
2023/11/26 09:11:30;;;;;;;11.83;6.90;;;3.90;97.70;;;5.48;67.74;97650.16;5012026;28;20395;-59
2023/11/26 09:13:58;;;;;;;11.00;6.97;;;3.90;96.50;;;5.53;67.49;97643.50;5011196;28;20111;-59
2023/11/26 09:16:26;;;;;;;8.97;6.23;;;3.90;96.70;;;5.57;66.78;97649.38;5011833;28;20046;-59
2023/11/26 09:18:53;;;;;;;8.40;5.53;;;4.00;96.60;;;5.59;67.76;97651.91;5011536;28;20061;-60
2023/11/26 09:21:22;;;;;;;7.97;5.80;;;4.00;97.50;;;5.63;67.51;97648.03;5003647;28;20046;-59
2023/11/26 09:23:51;;;;;;;10.63;6.93;;;4.00;97.00;;;5.56;67.11;97658.25;5011238;28;20038;-59
2023/11/26 09:26:19;;;;;;;6.47;4.60;;;4.00;96.50;;;5.45;67.52;97651.25;5011096;28;20049;-58
2023/11/26 09:28:47;;;;;;;8.97;5.27;;;4.00;96.50;;;5.48;67.44;97663.34;5011863;28;20049;-59
2023/11/26 09:31:23;;;;;;;10.90;5.57;;;3.90;97.00;;;5.44;67.11;97665.41;5003985;28;20049;-59
2023/11/26 09:33:51;;;;;;;10.03;5.13;;;4.00;96.20;;;5.26;67.78;97665.16;5010837;28;20057;-59
2023/11/26 09:36:19;;;;;;;8.20;5.13;;;3.80;96.70;;;5.42;67.34;97663.88;5012023;28;20046;-59
2023/11/26 09:38:46;;;;;;;9.37;5.50;;;3.90;98.20;;;5.42;67.68;97662.06;5012328;28;20042;-59
2023/11/26 09:41:21;;;;;;;9.33;6.37;;;3.90;97.60;;;5.41;67.25;97662.19;5012037;28;20422;-59
2023/11/26 09:43:49;;;;;;;8.57;5.83;;;3.90;97.20;;;5.57;67.29;97670.50;5010413;28;20598;-59
2023/11/26 09:46:20;;;;;;;7.33;4.43;;;4.10;98.00;;;5.43;67.63;97668.16;5010975;28;20073;-58
2023/11/26 09:48:48;;;;;;;5.83;3.87;;;4.00;97.00;;;5.49;67.68;97663.22;5012187;28;20423;-59
2023/11/26 09:51:23;;;;;;;5.17;3.47;;;4.00;97.20;;;5.34;67.66;97669.78;5012042;28;20423;-59
2023/11/26 09:53:52;;;;;;;8.00;3.57;;;4.10;94.20;;;5.59;67.77;97665.94;5010408;28;20103;-59
2023/11/26 09:56:20;;;;;;;5.87;4.23;;;4.10;97.40;;;5.70;66.96;97655.31;5011728;28;20045;-59
2023/11/26 09:58:47;;;;;;;10.80;4.40;;;4.20;96.70;;;5.81;67.75;97659.66;5011799;28;20041;-59
2023/11/26 10:01:15;;;;;;;8.53;4.67;;;4.30;97.20;;;5.92;67.08;97659.56;5010300;28;20129;-60
2023/11/26 10:04:00;;;;;;;9.17;4.37;;;4.40;97.60;;;5.80;67.80;97655.34;5011329;28;20045;-60
2023/11/26 10:06:29;;;;;;;11.17;4.30;;;4.40;96.00;;;5.91;67.28;97657.91;4986739;28;20038;-59
2023/11/26 10:08:59;;;;;;;8.20;4.80;;;4.40;96.70;;;5.97;67.11;97661.88;5011502;28;20506;-59
2023/11/26 10:11:27;;;;;;;5.57;4.27;;;4.40;96.30;;;5.73;67.64;97654.19;5010267;28;20392;-59
2023/11/26 10:13:55;;;;;;;6.57;3.73;;;4.30;96.00;;;5.73;66.74;97651.56;5010868;28;20042;-60
2023/11/26 10:16:28;;;;;;;6.73;4.30;;;4.20;95.10;;;5.82;66.75;97656.06;5011628;28;20045;-60
2023/11/26 10:18:56;;;;;;;9.70;4.10;;;4.20;95.80;;;5.66;65.78;97651.25;5010250;28;20053;-60
2023/11/26 10:21:25;;;;;;;13.37;7.20;;;4.20;93.30;;;5.73;66.42;97646.28;5003646;28;20042;-59
2023/11/26 10:23:53;;;;;;;7.23;4.60;;;4.20;96.50;;;5.89;67.40;97641.38;5010903;28;20046;-60
2023/11/26 10:26:26;;;;;;;6.00;4.80;;;4.30;95.90;;;5.93;66.67;97636.63;5010145;28;20045;-59
2023/11/26 10:29:09;;;;;;;8.27;4.90;;;4.40;95.60;;;6.02;66.71;97638.50;5010990;28;20370;-60
2023/11/26 10:31:39;;;;;;;9.47;3.40;;;4.40;93.80;;;6.07;66.80;97631.03;5004729;28;20040;-59
2023/11/26 10:34:10;;;;;;;6.57;4.23;;;4.50;94.00;;;6.10;66.52;97629.91;5009556;28;20300;-62
2023/11/26 10:36:38;;;;;;;11.30;5.37;;;4.50;93.80;;;6.16;66.19;97626.72;5010926;28;20069;-61
2023/11/26 10:39:09;;;;;;;8.37;6.47;;;4.60;94.40;;;6.24;66.25;97621.63;5010536;28;20049;-61
2023/11/26 10:41:37;;;;;;;9.20;3.77;;;4.60;94.10;;;6.25;66.25;97619.81;5011176;28;20046;-61